Flight Track Log - Related Links

Times and Time Zones

All times are in EDT time to prevent confusion due to time zone crossing. See the THY2466 flight status page for this flight to view local times or setup timezone preferences in your user account.

Time Position Orientation Groundspeed Altitude Reporting Facility
EDT Latitude Longitude Course Direction KTS MPH feet Rate Location/Type
Fri 10:00:00 AM 40.2713 30.0620 126° Southeast  Level Estimated
Fri 10:01:00 AM 40.2065 30.1736 127° Southeast  Level Estimated
Fri 10:02:00 AM 40.1415 30.2849 127° Southeast  Level Estimated
Fri 10:03:00 AM 40.0765 30.3960 127° Southeast  Level Estimated
Fri 10:04:00 AM 40.0114 30.5068 127° Southeast  Level Estimated
Fri 10:05:00 AM 39.9462 30.6175 128° Southeast  Level Estimated
Fri 10:06:00 AM 39.8809 30.7280 128° Southeast  Level Estimated
Fri 10:07:00 AM 39.8154 30.8382 128° Southeast  Level Estimated
Fri 10:08:00 AM 39.7499 30.9483 128° Southeast  Level Estimated
Fri 10:09:00 AM 39.6842 31.0581 128° Southeast  Level Estimated
Fri 10:10:00 AM 39.6185 31.1677 128° Southeast  Level Estimated
Fri 10:11:00 AM 39.5526 31.2771 128° Southeast  Level Estimated
Fri 10:12:00 AM 39.4867 31.3863 128° Southeast  Level Estimated
Fri 10:13:00 AM 39.4206 31.4953 128° Southeast  Level Estimated
Fri 10:14:00 AM 39.3545 31.6041 128° Southeast  Level Estimated
Fri 10:15:00 AM 39.2882 31.7127 128° Southeast  Level Estimated
Fri 10:16:00 AM 39.2219 31.8211 128° Southeast  Level Estimated
Fri 10:17:00 AM 39.1554 31.9292 128° Southeast  Level Estimated
Fri 10:18:00 AM 39.0888 32.0372 128° Southeast  Level Estimated
Fri 10:19:00 AM 39.0222 32.1450 129° Southeast  Level Estimated
Fri 10:20:00 AM 38.9554 32.2525 129° Southeast  Level Estimated
Fri 10:21:00 AM 38.8886 32.3599 129° Southeast  Level Estimated
Fri 10:22:00 AM 38.8216 32.4671 129° Southeast  Level Estimated
Fri 10:23:00 AM 38.7546 32.5740 129° Southeast  Level Estimated
Fri 10:24:00 AM 38.6874 32.6808 129° Southeast  Level Estimated
Fri 10:25:00 AM 38.6202 32.7873 129° Southeast  Level Estimated
Fri 10:26:00 AM 38.5528 32.8937 129° Southeast  Level Estimated
Fri 10:27:00 AM 38.4854 32.9999 129° Southeast  Level Estimated
Fri 10:28:00 AM 38.4179 33.1058 129° Southeast  Level Estimated
Fri 10:29:00 AM 38.3502 33.2116 129° Southeast  Level Estimated
Fri 10:30:00 AM 38.2825 33.3171 129° Southeast  Level Estimated
Fri 10:31:00 AM 38.2147 33.4225 129° Southeast  Level Estimated
Fri 10:32:00 AM 38.1468 33.5277 129° Southeast  Level Estimated
Fri 10:33:00 AM 38.0788 33.6326 129° Southeast  Level Estimated
Fri 10:34:00 AM 38.0107 33.7374 129° Southeast  Level Estimated
Fri 10:35:00 AM 37.9425 33.8420 130° Southeast  Level Estimated
Fri 10:36:00 AM 37.8742 33.9464 130° Southeast  Level Estimated
Fri 10:37:00 AM 37.8058 34.0506 130° Southeast  Level Estimated
Fri 10:38:00 AM 37.7374 34.1546 130° Southeast  Level Estimated
Fri 10:39:00 AM 37.6688 34.2584 130° Southeast  Level Estimated
Fri 10:40:00 AM 37.6002 34.3620 130° Southeast  Level Estimated
Fri 10:41:00 AM 37.5314 34.4655 130° Southeast  Level Estimated
Fri 10:42:00 AM 37.4626 34.5687 130° Southeast  Level Estimated
Fri 10:43:00 AM 37.3937 34.6717 130° Southeast  Level Estimated
Fri 10:44:00 AM 37.3246 34.7746 130° Southeast  Level Estimated
Fri 10:45:00 AM 37.2556 34.8773 130° Southeast  Level Estimated
Fri 10:46:00 AM 37.1864 34.9798 130° Southeast  Level Estimated
Fri 10:47:00 AM 37.1171 35.0821 130° Southeast  Level Estimated
Fri 10:48:00 AM 37.0477 35.1842 130° Southeast  Level Estimated
Fri 10:49:00 AM 36.9822 35.2804 130° Southeast  Level Estimated
Fri 10:50:00 AM 36.9822 35.2804 202° Southwest  Level Estimated
Fri 10:51:00 AM 36.9822 35.2804 202° Southwest  Level Estimated
Fri 10:52:00 AM 36.9822 35.2804 202° Southwest  Level Estimated
Fri 10:53:00 AM 36.9822 35.2804 202° Southwest  Level Estimated
Fri 10:54:00 AM 36.9822 35.2804 202° Southwest  Level Estimated
Fri 10:55:00 AM 36.9822 35.2804 202° Southwest  Level Estimated
Fri 10:56:00 AM 36.9822 35.2804 202° Southwest  Level Estimated
Fri 10:57:00 AM 36.9822 35.2804 202° Southwest  Level Estimated
Fri 10:58:00 AM 36.9822 35.2804 202° Southwest  Level Estimated
Fri 10:59:00 AM 36.9822 35.2804 202° Southwest  Level Estimated
Fri 11:00:00 AM 36.9822 35.2804 202° Southwest  Level Estimated
Fri 11:01:00 AM 36.9822 35.2804 202° Southwest  Level Estimated
Fri 11:02:00 AM 36.9822 35.2804 202° Southwest  Level Estimated
Fri 11:03:00 AM 36.9822 35.2804 202° Southwest  Level Estimated
Fri 11:04:00 AM 36.9822 35.2804 202° Southwest  Level Estimated
Fri 11:05:00 AM 36.9822 35.2804 202° Southwest  Level Estimated

Login

Don't have an account? Register now (free) for customized features, flight alerts, and more!